Brill, Wisconsin
Current Conditions -  °F | °C
As of 8:15 PM on Saturday 22 Nov 2014 (Local Time) from KRPD Reporting Station
Haze Haze  
Wind Chill: 27°   Ceiling: 300
Heat Index: 35°   Visibility: 1.5mi
Dew Point: 34°   Wind: 9mph
Humidity: 97%   Direction: 130°SE
Pressure: 29.66"   Gusts: NA
Location:  45.6°N, 91.67°W
Report Text: KRPD 230215Z AUTO 13008KT 1 1/2SM BR OVC003 02/01 A2966 RMK AO2 T00150011
Loading
Personal Weather Stations






























Interactive Weather Map New forecast layout! Learn more

10-Day Weather Forecast

Advertisements
Track Severe Weather on mobile